sensor_id;sensor_type;location;lat;lon;timestamp;P1;durP1;ratioP1;P2;durP2;ratioP2
78324;SDS011;67584;51.400;6.692;2023-03-14T00:01:47;3.00;;;1.58;;
78324;SDS011;67584;51.400;6.692;2023-03-14T00:04:13;2.55;;;1.42;;
78324;SDS011;67584;51.400;6.692;2023-03-14T00:06:39;2.58;;;2.28;;
78324;SDS011;67584;51.400;6.692;2023-03-14T00:09:05;4.18;;;1.73;;
78324;SDS011;67584;51.400;6.692;2023-03-14T00:11:30;6.75;;;1.52;;
78324;SDS011;67584;51.400;6.692;2023-03-14T00:13:57;5.20;;;2.10;;
78324;SDS011;67584;51.400;6.692;2023-03-14T00:16:22;3.85;;;2.00;;
78324;SDS011;67584;51.400;6.692;2023-03-14T00:18:48;4.47;;;1.50;;
78324;SDS011;67584;51.400;6.692;2023-03-14T00:21:13;3.38;;;1.60;;
78324;SDS011;67584;51.400;6.692;2023-03-14T00:23:40;2.95;;;1.73;;
78324;SDS011;67584;51.400;6.692;2023-03-14T00:26:11;7.82;;;2.20;;
78324;SDS011;67584;51.400;6.692;2023-03-14T00:28:39;6.50;;;2.97;;
78324;SDS011;67584;51.400;6.692;2023-03-14T00:31:06;3.53;;;2.20;;
78324;SDS011;67584;51.400;6.692;2023-03-14T00:33:33;6.55;;;2.67;;
78324;SDS011;67584;51.400;6.692;2023-03-14T00:36:00;3.13;;;1.60;;
78324;SDS011;67584;51.400;6.692;2023-03-14T00:38:29;4.75;;;1.55;;
78324;SDS011;67584;51.400;6.692;2023-03-14T00:40:56;4.45;;;1.55;;
78324;SDS011;67584;51.400;6.692;2023-03-14T00:43:22;2.78;;;1.25;;
78324;SDS011;67584;51.400;6.692;2023-03-14T00:45:48;1.95;;;1.10;;
78324;SDS011;67584;51.400;6.692;2023-03-14T00:48:15;2.13;;;1.10;;
78324;SDS011;67584;51.400;6.692;2023-03-14T00:50:41;3.35;;;1.45;;
78324;SDS011;67584;51.400;6.692;2023-03-14T00:53:07;4.15;;;2.25;;
78324;SDS011;67584;51.400;6.692;2023-03-14T00:55:36;4.38;;;1.58;;
78324;SDS011;67584;51.400;6.692;2023-03-14T00:58:04;4.65;;;1.55;;
78324;SDS011;67584;51.400;6.692;2023-03-14T01:00:30;6.05;;;1.55;;
78324;SDS011;67584;51.400;6.692;2023-03-14T01:02:56;2.92;;;1.45;;
78324;SDS011;67584;51.400;6.692;2023-03-14T01:05:22;3.08;;;1.50;;
78324;SDS011;67584;51.400;6.692;2023-03-14T01:07:49;6.03;;;1.52;;
78324;SDS011;67584;51.400;6.692;2023-03-14T01:10:15;4.40;;;2.00;;
78324;SDS011;67584;51.400;6.692;2023-03-14T01:12:41;3.97;;;1.95;;
78324;SDS011;67584;51.400;6.692;2023-03-14T01:15:07;5.85;;;2.00;;
78324;SDS011;67584;51.400;6.692;2023-03-14T01:17:33;4.20;;;2.13;;
78324;SDS011;67584;51.400;6.692;2023-03-14T01:19:59;6.35;;;1.98;;
78324;SDS011;67584;51.400;6.692;2023-03-14T01:22:26;5.55;;;1.60;;
78324;SDS011;67584;51.400;6.692;2023-03-14T01:24:51;3.38;;;1.63;;
78324;SDS011;67584;51.400;6.692;2023-03-14T01:27:17;5.15;;;1.13;;
78324;SDS011;67584;51.400;6.692;2023-03-14T01:29:43;1.45;;;0.95;;
78324;SDS011;67584;51.400;6.692;2023-03-14T01:32:09;2.67;;;0.98;;
78324;SDS011;67584;51.400;6.692;2023-03-14T01:34:35;2.78;;;1.23;;
78324;SDS011;67584;51.400;6.692;2023-03-14T01:37:00;1.88;;;1.27;;
78324;SDS011;67584;51.400;6.692;2023-03-14T01:39:26;4.22;;;2.03;;
78324;SDS011;67584;51.400;6.692;2023-03-14T01:41:53;3.63;;;1.60;;
78324;SDS011;67584;51.400;6.692;2023-03-14T01:44:19;6.93;;;1.60;;
78324;SDS011;67584;51.400;6.692;2023-03-14T01:46:45;3.63;;;1.55;;
78324;SDS011;67584;51.400;6.692;2023-03-14T01:49:15;3.92;;;1.13;;
78324;SDS011;67584;51.400;6.692;2023-03-14T01:51:54;1.83;;;1.13;;
78324;SDS011;67584;51.400;6.692;2023-03-14T01:59:38;1.48;;;1.05;;
78324;SDS011;67584;51.400;6.692;2023-03-14T02:02:09;2.33;;;1.20;;
78324;SDS011;67584;51.400;6.692;2023-03-14T02:04:39;3.80;;;1.40;;
78324;SDS011;67584;51.400;6.692;2023-03-14T02:07:14;2.45;;;1.40;;
78324;SDS011;67584;51.400;6.692;2023-03-14T02:09:54;5.15;;;2.13;;
78324;SDS011;67584;51.400;6.692;2023-03-14T02:12:24;4.38;;;2.20;;
78324;SDS011;67584;51.400;6.692;2023-03-14T02:15:09;3.75;;;2.03;;
78324;SDS011;67584;51.400;6.692;2023-03-14T02:18:01;4.70;;;1.33;;
78324;SDS011;67584;51.400;6.692;2023-03-14T02:21:00;2.80;;;1.50;;
78324;SDS011;67584;51.400;6.692;2023-03-14T02:23:37;2.78;;;1.25;;
78324;SDS011;67584;51.400;6.692;2023-03-14T02:28:51;4.00;;;0.85;;
78324;SDS011;67584;51.400;6.692;2023-03-14T02:31:18;5.75;;;1.80;;
78324;SDS011;67584;51.400;6.692;2023-03-14T02:33:48;3.22;;;1.40;;
78324;SDS011;67584;51.400;6.692;2023-03-14T02:36:14;5.68;;;1.80;;
78324;SDS011;67584;51.400;6.692;2023-03-14T02:41:21;2.35;;;1.13;;
78324;SDS011;67584;51.400;6.692;2023-03-14T02:43:56;4.57;;;1.30;;
78324;SDS011;67584;51.400;6.692;2023-03-14T02:46:23;4.90;;;1.73;;
78324;SDS011;67584;51.400;6.692;2023-03-14T02:51:16;4.30;;;1.90;;
78324;SDS011;67584;51.400;6.692;2023-03-14T02:53:45;5.25;;;1.70;;
78324;SDS011;67584;51.400;6.692;2023-03-14T02:56:12;5.75;;;1.85;;
78324;SDS011;67584;51.400;6.692;2023-03-14T02:58:37;8.38;;;2.22;;
78324;SDS011;67584;51.400;6.692;2023-03-14T03:01:14;3.60;;;1.65;;
78324;SDS011;67584;51.400;6.692;2023-03-14T03:03:39;4.32;;;1.45;;
78324;SDS011;67584;51.400;6.692;2023-03-14T03:06:05;5.28;;;1.38;;
78324;SDS011;67584;51.400;6.692;2023-03-14T03:08:31;5.95;;;1.60;;
78324;SDS011;67584;51.400;6.692;2023-03-14T03:10:58;4.97;;;1.50;;
78324;SDS011;67584;51.400;6.692;2023-03-14T03:13:26;10.25;;;1.70;;
78324;SDS011;67584;51.400;6.692;2023-03-14T03:15:54;4.55;;;1.30;;
78324;SDS011;67584;51.400;6.692;2023-03-14T03:18:20;3.42;;;1.30;;
78324;SDS011;67584;51.400;6.692;2023-03-14T03:20:46;2.20;;;1.38;;
78324;SDS011;67584;51.400;6.692;2023-03-14T03:23:12;2.92;;;1.45;;
78324;SDS011;67584;51.400;6.692;2023-03-14T03:25:38;3.70;;;1.20;;
78324;SDS011;67584;51.400;6.692;2023-03-14T03:28:04;4.07;;;1.48;;
78324;SDS011;67584;51.400;6.692;2023-03-14T03:30:37;4.30;;;1.63;;
78324;SDS011;67584;51.400;6.692;2023-03-14T03:33:03;7.80;;;2.00;;
78324;SDS011;67584;51.400;6.692;2023-03-14T03:35:29;7.68;;;1.88;;
78324;SDS011;67584;51.400;6.692;2023-03-14T03:37:55;2.55;;;1.10;;
78324;SDS011;67584;51.400;6.692;2023-03-14T03:40:21;3.08;;;1.48;;
78324;SDS011;67584;51.400;6.692;2023-03-14T03:42:47;2.65;;;1.30;;
78324;SDS011;67584;51.400;6.692;2023-03-14T03:45:13;3.10;;;1.40;;
78324;SDS011;67584;51.400;6.692;2023-03-14T03:47:48;3.67;;;1.20;;
78324;SDS011;67584;51.400;6.692;2023-03-14T03:50:14;3.80;;;1.25;;
78324;SDS011;67584;51.400;6.692;2023-03-14T03:52:40;2.78;;;1.27;;
78324;SDS011;67584;51.400;6.692;2023-03-14T03:55:05;6.22;;;1.73;;
78324;SDS011;67584;51.400;6.692;2023-03-14T03:57:31;6.65;;;1.65;;
78324;SDS011;67584;51.400;6.692;2023-03-14T03:59:57;3.72;;;1.30;;
78324;SDS011;67584;51.400;6.692;2023-03-14T04:02:23;5.78;;;1.40;;
78324;SDS011;67584;51.400;6.692;2023-03-14T04:04:49;6.45;;;1.67;;
78324;SDS011;67584;51.400;6.692;2023-03-14T04:07:16;4.47;;;1.30;;
78324;SDS011;67584;51.400;6.692;2023-03-14T04:09:42;1.42;;;0.98;;
78324;SDS011;67584;51.400;6.692;2023-03-14T04:12:25;2.72;;;1.02;;
78324;SDS011;67584;51.400;6.692;2023-03-14T04:14:58;4.93;;;1.67;;
78324;SDS011;67584;51.400;6.692;2023-03-14T04:17:23;3.83;;;1.33;;
78324;SDS011;67584;51.400;6.692;2023-03-14T04:19:49;2.72;;;1.58;;
78324;SDS011;67584;51.400;6.692;2023-03-14T04:22:19;7.90;;;3.25;;
78324;SDS011;67584;51.400;6.692;2023-03-14T04:24:48;4.65;;;1.88;;
78324;SDS011;67584;51.400;6.692;2023-03-14T04:27:14;5.82;;;2.20;;
78324;SDS011;67584;51.400;6.692;2023-03-14T04:29:41;1.67;;;1.27;;
78324;SDS011;67584;51.400;6.692;2023-03-14T04:32:08;3.25;;;1.70;;
78324;SDS011;67584;51.400;6.692;2023-03-14T04:34:39;2.50;;;1.65;;
78324;SDS011;67584;51.400;6.692;2023-03-14T04:37:06;2.55;;;2.08;;
78324;SDS011;67584;51.400;6.692;2023-03-14T04:39:38;3.00;;;1.73;;
78324;SDS011;67584;51.400;6.692;2023-03-14T04:42:11;2.78;;;1.63;;
78324;SDS011;67584;51.400;6.692;2023-03-14T04:44:38;3.60;;;2.17;;
78324;SDS011;67584;51.400;6.692;2023-03-14T04:47:05;4.55;;;1.75;;
78324;SDS011;67584;51.400;6.692;2023-03-14T04:49:31;3.40;;;1.30;;
78324;SDS011;67584;51.400;6.692;2023-03-14T04:51:58;3.97;;;1.20;;
78324;SDS011;67584;51.400;6.692;2023-03-14T04:54:26;2.25;;;0.98;;
78324;SDS011;67584;51.400;6.692;2023-03-14T04:56:55;3.45;;;1.10;;
78324;SDS011;67584;51.400;6.692;2023-03-14T04:59:22;3.17;;;1.23;;
78324;SDS011;67584;51.400;6.692;2023-03-14T05:01:50;1.70;;;0.85;;
78324;SDS011;67584;51.400;6.692;2023-03-14T05:04:35;3.25;;;1.42;;
78324;SDS011;67584;51.400;6.692;2023-03-14T05:07:13;3.13;;;1.90;;
78324;SDS011;67584;51.400;6.692;2023-03-14T05:09:49;4.57;;;2.15;;
78324;SDS011;67584;51.400;6.692;2023-03-14T05:12:31;5.30;;;2.85;;
78324;SDS011;67584;51.400;6.692;2023-03-14T05:15:06;4.20;;;1.65;;
78324;SDS011;67584;51.400;6.692;2023-03-14T05:18:11;7.28;;;2.97;;
78324;SDS011;67584;51.400;6.692;2023-03-14T05:20:54;8.13;;;4.30;;
78324;SDS011;67584;51.400;6.692;2023-03-14T05:23:28;9.07;;;4.30;;
78324;SDS011;67584;51.400;6.692;2023-03-14T05:26:13;5.43;;;2.33;;
78324;SDS011;67584;51.400;6.692;2023-03-14T05:29:15;3.70;;;1.60;;
78324;SDS011;67584;51.400;6.692;2023-03-14T05:32:01;2.40;;;1.45;;
78324;SDS011;67584;51.400;6.692;2023-03-14T05:34:46;2.55;;;1.48;;
78324;SDS011;67584;51.400;6.692;2023-03-14T05:37:38;1.55;;;1.27;;
78324;SDS011;67584;51.400;6.692;2023-03-14T05:40:27;1.83;;;1.35;;
78324;SDS011;67584;51.400;6.692;2023-03-14T05:43:02;3.05;;;1.50;;
78324;SDS011;67584;51.400;6.692;2023-03-14T05:45:53;3.85;;;1.20;;
78324;SDS011;67584;51.400;6.692;2023-03-14T05:48:48;2.58;;;1.85;;
78324;SDS011;67584;51.400;6.692;2023-03-14T05:51:34;4.93;;;1.65;;
78324;SDS011;67584;51.400;6.692;2023-03-14T05:54:14;4.60;;;1.45;;
78324;SDS011;67584;51.400;6.692;2023-03-14T05:57:05;2.55;;;1.20;;
78324;SDS011;67584;51.400;6.692;2023-03-14T05:59:39;3.20;;;1.13;;
78324;SDS011;67584;51.400;6.692;2023-03-14T06:02:13;2.42;;;1.40;;
78324;SDS011;67584;51.400;6.692;2023-03-14T06:04:49;4.45;;;1.65;;
78324;SDS011;67584;51.400;6.692;2023-03-14T06:07:15;1.88;;;1.30;;
78324;SDS011;67584;51.400;6.692;2023-03-14T06:09:42;2.63;;;1.25;;
78324;SDS011;67584;51.400;6.692;2023-03-14T06:12:07;1.27;;;1.08;;
78324;SDS011;67584;51.400;6.692;2023-03-14T06:14:39;1.77;;;1.27;;
78324;SDS011;67584;51.400;6.692;2023-03-14T06:17:05;2.15;;;1.00;;
78324;SDS011;67584;51.400;6.692;2023-03-14T06:19:37;1.02;;;0.88;;
78324;SDS011;67584;51.400;6.692;2023-03-14T06:22:03;1.20;;;1.10;;
78324;SDS011;67584;51.400;6.692;2023-03-14T06:24:30;4.20;;;1.63;;
78324;SDS011;67584;51.400;6.692;2023-03-14T06:26:56;3.22;;;1.88;;
78324;SDS011;67584;51.400;6.692;2023-03-14T06:29:22;4.05;;;2.60;;
78324;SDS011;67584;51.400;6.692;2023-03-14T06:31:48;2.55;;;1.60;;
78324;SDS011;67584;51.400;6.692;2023-03-14T06:34:16;2.65;;;1.83;;
78324;SDS011;67584;51.400;6.692;2023-03-14T06:36:42;4.18;;;2.45;;
78324;SDS011;67584;51.400;6.692;2023-03-14T06:39:08;2.20;;;1.70;;
78324;SDS011;67584;51.400;6.692;2023-03-14T06:41:37;3.88;;;2.17;;
78324;SDS011;67584;51.400;6.692;2023-03-14T06:44:03;4.03;;;2.95;;
78324;SDS011;67584;51.400;6.692;2023-03-14T06:46:30;4.60;;;3.22;;
78324;SDS011;67584;51.400;6.692;2023-03-14T06:48:57;5.63;;;4.00;;
78324;SDS011;67584;51.400;6.692;2023-03-14T06:51:25;5.90;;;3.00;;
78324;SDS011;67584;51.400;6.692;2023-03-14T06:53:51;3.50;;;2.50;;
78324;SDS011;67584;51.400;6.692;2023-03-14T06:56:20;5.47;;;3.05;;
78324;SDS011;67584;51.400;6.692;2023-03-14T06:58:46;2.22;;;1.60;;
78324;SDS011;67584;51.400;6.692;2023-03-14T07:01:26;1.55;;;1.10;;
78324;SDS011;67584;51.400;6.692;2023-03-14T07:03:56;1.60;;;0.88;;
78324;SDS011;67584;51.400;6.692;2023-03-14T07:06:22;1.88;;;0.80;;
78324;SDS011;67584;51.400;6.692;2023-03-14T07:08:48;1.75;;;1.20;;
78324;SDS011;67584;51.400;6.692;2023-03-14T07:11:16;1.27;;;1.10;;
78324;SDS011;67584;51.400;6.692;2023-03-14T07:13:42;2.03;;;1.50;;
78324;SDS011;67584;51.400;6.692;2023-03-14T07:16:08;3.38;;;2.25;;
78324;SDS011;67584;51.400;6.692;2023-03-14T07:18:36;3.83;;;2.88;;
78324;SDS011;67584;51.400;6.692;2023-03-14T07:21:04;4.07;;;3.00;;
78324;SDS011;67584;51.400;6.692;2023-03-14T07:23:31;4.80;;;3.35;;
78324;SDS011;67584;51.400;6.692;2023-03-14T07:25:57;6.10;;;3.08;;
78324;SDS011;67584;51.400;6.692;2023-03-14T07:28:26;4.30;;;2.97;;
78324;SDS011;67584;51.400;6.692;2023-03-14T07:31:17;3.67;;;2.30;;
78324;SDS011;67584;51.400;6.692;2023-03-14T07:33:43;5.82;;;3.60;;
78324;SDS011;67584;51.400;6.692;2023-03-14T07:36:09;5.65;;;3.53;;
78324;SDS011;67584;51.400;6.692;2023-03-14T07:38:35;5.28;;;2.75;;
78324;SDS011;67584;51.400;6.692;2023-03-14T07:41:13;5.10;;;2.55;;
78324;SDS011;67584;51.400;6.692;2023-03-14T07:43:46;4.40;;;3.15;;
78324;SDS011;67584;51.400;6.692;2023-03-14T07:46:12;8.18;;;4.50;;
78324;SDS011;67584;51.400;6.692;2023-03-14T07:48:39;6.15;;;4.03;;
78324;SDS011;67584;51.400;6.692;2023-03-14T07:51:05;4.75;;;3.60;;
78324;SDS011;67584;51.400;6.692;2023-03-14T07:53:31;3.22;;;2.40;;
78324;SDS011;67584;51.400;6.692;2023-03-14T07:55:57;7.85;;;4.93;;
78324;SDS011;67584;51.400;6.692;2023-03-14T07:58:23;7.70;;;5.40;;
78324;SDS011;67584;51.400;6.692;2023-03-14T08:00:49;8.20;;;4.38;;
78324;SDS011;67584;51.400;6.692;2023-03-14T08:03:15;7.57;;;4.25;;
78324;SDS011;67584;51.400;6.692;2023-03-14T08:05:41;9.43;;;4.05;;
78324;SDS011;67584;51.400;6.692;2023-03-14T08:08:07;3.40;;;2.00;;
78324;SDS011;67584;51.400;6.692;2023-03-14T08:10:36;3.15;;;1.95;;
78324;SDS011;67584;51.400;6.692;2023-03-14T08:13:01;3.75;;;1.85;;
78324;SDS011;67584;51.400;6.692;2023-03-14T08:15:28;3.45;;;1.95;;
78324;SDS011;67584;51.400;6.692;2023-03-14T08:17:55;6.90;;;4.53;;
78324;SDS011;67584;51.400;6.692;2023-03-14T08:20:22;10.85;;;5.97;;
78324;SDS011;67584;51.400;6.692;2023-03-14T08:23:00;7.53;;;4.65;;
78324;SDS011;67584;51.400;6.692;2023-03-14T08:25:29;7.18;;;4.40;;
78324;SDS011;67584;51.400;6.692;2023-03-14T08:27:55;6.97;;;5.03;;
78324;SDS011;67584;51.400;6.692;2023-03-14T08:30:27;6.45;;;3.78;;
78324;SDS011;67584;51.400;6.692;2023-03-14T08:32:53;6.38;;;4.15;;
78324;SDS011;67584;51.400;6.692;2023-03-14T08:35:21;5.60;;;3.13;;
78324;SDS011;67584;51.400;6.692;2023-03-14T08:37:46;2.75;;;1.60;;
78324;SDS011;67584;51.400;6.692;2023-03-14T08:40:12;2.28;;;1.77;;
78324;SDS011;67584;51.400;6.692;2023-03-14T08:42:39;2.00;;;1.50;;
78324;SDS011;67584;51.400;6.692;2023-03-14T08:45:05;1.70;;;1.23;;
78324;SDS011;67584;51.400;6.692;2023-03-14T08:47:32;2.50;;;1.38;;
78324;SDS011;67584;51.400;6.692;2023-03-14T08:49:58;2.67;;;1.45;;
78324;SDS011;67584;51.400;6.692;2023-03-14T08:52:24;1.85;;;1.33;;
78324;SDS011;67584;51.400;6.692;2023-03-14T08:54:50;1.95;;;1.10;;
78324;SDS011;67584;51.400;6.692;2023-03-14T08:57:16;1.80;;;1.30;;
78324;SDS011;67584;51.400;6.692;2023-03-14T08:59:41;1.30;;;1.20;;
78324;SDS011;67584;51.400;6.692;2023-03-14T09:02:09;2.53;;;1.40;;
78324;SDS011;67584;51.400;6.692;2023-03-14T09:04:38;3.22;;;1.50;;
78324;SDS011;67584;51.400;6.692;2023-03-14T09:07:04;3.65;;;2.03;;
78324;SDS011;67584;51.400;6.692;2023-03-14T09:09:29;1.35;;;0.88;;
78324;SDS011;67584;51.400;6.692;2023-03-14T09:11:55;1.50;;;0.77;;
78324;SDS011;67584;51.400;6.692;2023-03-14T09:14:22;1.23;;;0.82;;
78324;SDS011;67584;51.400;6.692;2023-03-14T09:16:47;1.30;;;0.65;;
78324;SDS011;67584;51.400;6.692;2023-03-14T09:19:13;0.25;;;0.25;;
78324;SDS011;67584;51.400;6.692;2023-03-14T09:21:39;0.47;;;0.47;;
78324;SDS011;67584;51.400;6.692;2023-03-14T09:24:05;0.93;;;0.73;;
78324;SDS011;67584;51.400;6.692;2023-03-14T09:26:31;0.43;;;0.43;;
78324;SDS011;67584;51.400;6.692;2023-03-14T09:28:58;1.42;;;1.00;;
78324;SDS011;67584;51.400;6.692;2023-03-14T09:31:24;1.52;;;1.20;;
78324;SDS011;67584;51.400;6.692;2023-03-14T09:33:49;1.20;;;0.80;;
78324;SDS011;67584;51.400;6.692;2023-03-14T09:36:15;0.50;;;0.50;;
78324;SDS011;67584;51.400;6.692;2023-03-14T09:38:41;1.05;;;0.93;;
78324;SDS011;67584;51.400;6.692;2023-03-14T09:41:12;1.65;;;1.00;;
78324;SDS011;67584;51.400;6.692;2023-03-14T09:43:44;2.65;;;1.35;;
78324;SDS011;67584;51.400;6.692;2023-03-14T09:46:12;1.80;;;1.10;;
78324;SDS011;67584;51.400;6.692;2023-03-14T09:48:38;1.50;;;1.40;;
78324;SDS011;67584;51.400;6.692;2023-03-14T09:51:11;1.88;;;1.30;;
78324;SDS011;67584;51.400;6.692;2023-03-14T09:53:42;2.40;;;1.70;;
78324;SDS011;67584;51.400;6.692;2023-03-14T09:56:17;3.55;;;2.03;;
78324;SDS011;67584;51.400;6.692;2023-03-14T09:58:56;3.55;;;2.22;;
78324;SDS011;67584;51.400;6.692;2023-03-14T10:01:25;2.97;;;2.13;;
78324;SDS011;67584;51.400;6.692;2023-03-14T10:03:56;3.33;;;1.80;;
78324;SDS011;67584;51.400;6.692;2023-03-14T10:06:26;4.88;;;2.60;;
78324;SDS011;67584;51.400;6.692;2023-03-14T10:11:22;3.15;;;2.10;;
78324;SDS011;67584;51.400;6.692;2023-03-14T10:14:03;4.22;;;2.15;;
78324;SDS011;67584;51.400;6.692;2023-03-14T10:16:37;6.72;;;2.03;;
78324;SDS011;67584;51.400;6.692;2023-03-14T10:19:10;4.55;;;1.70;;
78324;SDS011;67584;51.400;6.692;2023-03-14T10:21:39;2.00;;;1.50;;
78324;SDS011;67584;51.400;6.692;2023-03-14T10:24:28;4.28;;;1.80;;
78324;SDS011;67584;51.400;6.692;2023-03-14T10:27:04;2.45;;;1.55;;
78324;SDS011;67584;51.400;6.692;2023-03-14T10:29:32;1.42;;;0.88;;
78324;SDS011;67584;51.400;6.692;2023-03-14T10:34:28;3.85;;;1.90;;
78324;SDS011;67584;51.400;6.692;2023-03-14T10:37:03;2.00;;;1.25;;
78324;SDS011;67584;51.400;6.692;2023-03-14T10:39:37;1.95;;;1.10;;
78324;SDS011;67584;51.400;6.692;2023-03-14T10:42:21;2.45;;;1.10;;
78324;SDS011;67584;51.400;6.692;2023-03-14T10:44:58;1.88;;;1.13;;
78324;SDS011;67584;51.400;6.692;2023-03-14T10:47:30;1.80;;;1.25;;
78324;SDS011;67584;51.400;6.692;2023-03-14T10:50:27;3.53;;;1.70;;
78324;SDS011;67584;51.400;6.692;2023-03-14T10:52:54;2.17;;;1.40;;
78324;SDS011;67584;51.400;6.692;2023-03-14T10:55:23;1.60;;;1.20;;
78324;SDS011;67584;51.400;6.692;2023-03-14T10:57:51;5.75;;;1.75;;
78324;SDS011;67584;51.400;6.692;2023-03-14T11:00:18;3.65;;;2.20;;
78324;SDS011;67584;51.400;6.692;2023-03-14T11:02:49;2.75;;;1.38;;
78324;SDS011;67584;51.400;6.692;2023-03-14T11:08:46;2.65;;;1.13;;
78324;SDS011;67584;51.400;6.692;2023-03-14T11:11:30;1.75;;;1.17;;
78324;SDS011;67584;51.400;6.692;2023-03-14T11:17:02;2.10;;;1.90;;
78324;SDS011;67584;51.400;6.692;2023-03-14T11:22:45;1.92;;;1.30;;
78324;SDS011;67584;51.400;6.692;2023-03-14T11:33:20;4.30;;;1.70;;
78324;SDS011;67584;51.400;6.692;2023-03-14T11:38:34;2.30;;;1.83;;
78324;SDS011;67584;51.400;6.692;2023-03-14T11:41:10;1.85;;;1.27;;
78324;SDS011;67584;51.400;6.692;2023-03-14T11:43:40;1.92;;;0.85;;
78324;SDS011;67584;51.400;6.692;2023-03-14T11:46:17;3.35;;;1.30;;
78324;SDS011;67584;51.400;6.692;2023-03-14T11:49:24;1.63;;;1.30;;
78324;SDS011;67584;51.400;6.692;2023-03-14T11:52:02;2.90;;;1.40;;
78324;SDS011;67584;51.400;6.692;2023-03-14T11:54:43;4.15;;;1.27;;
78324;SDS011;67584;51.400;6.692;2023-03-14T11:57:30;3.83;;;1.55;;
78324;SDS011;67584;51.400;6.692;2023-03-14T11:59:58;2.42;;;1.25;;
78324;SDS011;67584;51.400;6.692;2023-03-14T12:08:02;3.78;;;1.60;;
78324;SDS011;67584;51.400;6.692;2023-03-14T12:10:52;1.67;;;1.00;;
78324;SDS011;67584;51.400;6.692;2023-03-14T12:13:19;4.22;;;1.67;;
78324;SDS011;67584;51.400;6.692;2023-03-14T12:15:56;6.65;;;1.55;;
78324;SDS011;67584;51.400;6.692;2023-03-14T12:21:03;5.60;;;1.65;;
78324;SDS011;67584;51.400;6.692;2023-03-14T12:23:36;3.65;;;1.38;;
78324;SDS011;67584;51.400;6.692;2023-03-14T12:26:19;5.13;;;1.50;;
78324;SDS011;67584;51.400;6.692;2023-03-14T12:44:50;7.22;;;1.95;;
78324;SDS011;67584;51.400;6.692;2023-03-14T12:49:45;13.00;;;2.55;;
78324;SDS011;67584;51.400;6.692;2023-03-14T12:52:19;6.35;;;2.17;;
78324;SDS011;67584;51.400;6.692;2023-03-14T12:58:08;8.70;;;3.30;;
78324;SDS011;67584;51.400;6.692;2023-03-14T13:00:50;8.00;;;2.35;;
78324;SDS011;67584;51.400;6.692;2023-03-14T13:03:21;9.02;;;2.42;;
78324;SDS011;67584;51.400;6.692;2023-03-14T13:05:53;6.00;;;1.83;;
78324;SDS011;67584;51.400;6.692;2023-03-14T13:08:33;7.40;;;2.70;;
78324;SDS011;67584;51.400;6.692;2023-03-14T13:11:02;12.65;;;3.05;;
78324;SDS011;67584;51.400;6.692;2023-03-14T13:13:35;10.80;;;3.00;;
78324;SDS011;67584;51.400;6.692;2023-03-14T13:16:09;11.82;;;4.28;;
78324;SDS011;67584;51.400;6.692;2023-03-14T13:18:40;5.38;;;2.00;;
78324;SDS011;67584;51.400;6.692;2023-03-14T13:23:46;9.70;;;3.10;;
78324;SDS011;67584;51.400;6.692;2023-03-14T13:26:20;6.55;;;2.65;;
78324;SDS011;67584;51.400;6.692;2023-03-14T13:28:48;9.93;;;3.58;;
78324;SDS011;67584;51.400;6.692;2023-03-14T13:31:24;10.68;;;3.30;;
78324;SDS011;67584;51.400;6.692;2023-03-14T13:34:00;9.15;;;3.45;;
78324;SDS011;67584;51.400;6.692;2023-03-14T13:36:27;10.32;;;2.90;;
78324;SDS011;67584;51.400;6.692;2023-03-14T13:38:56;11.93;;;3.50;;
78324;SDS011;67584;51.400;6.692;2023-03-14T13:41:24;15.63;;;3.08;;
78324;SDS011;67584;51.400;6.692;2023-03-14T13:43:51;8.30;;;2.13;;
78324;SDS011;67584;51.400;6.692;2023-03-14T13:46:20;7.03;;;2.42;;
78324;SDS011;67584;51.400;6.692;2023-03-14T13:48:52;8.07;;;2.40;;
78324;SDS011;67584;51.400;6.692;2023-03-14T13:51:25;9.73;;;2.05;;
78324;SDS011;67584;51.400;6.692;2023-03-14T13:53:56;9.85;;;2.25;;
78324;SDS011;67584;51.400;6.692;2023-03-14T13:56:28;8.68;;;2.63;;
78324;SDS011;67584;51.400;6.692;2023-03-14T13:58:56;6.38;;;2.50;;
78324;SDS011;67584;51.400;6.692;2023-03-14T14:03:53;9.60;;;2.65;;
78324;SDS011;67584;51.400;6.692;2023-03-14T14:09:10;6.60;;;1.95;;
78324;SDS011;67584;51.400;6.692;2023-03-14T14:14:26;4.85;;;1.70;;
78324;SDS011;67584;51.400;6.692;2023-03-14T14:16:53;3.90;;;1.60;;
78324;SDS011;67584;51.400;6.692;2023-03-14T14:19:19;4.25;;;2.10;;
78324;SDS011;67584;51.400;6.692;2023-03-14T14:21:49;5.03;;;1.73;;
78324;SDS011;67584;51.400;6.692;2023-03-14T14:24:15;7.47;;;1.60;;
78324;SDS011;67584;51.400;6.692;2023-03-14T14:26:46;5.25;;;2.03;;
78324;SDS011;67584;51.400;6.692;2023-03-14T14:29:28;8.07;;;2.13;;
78324;SDS011;67584;51.400;6.692;2023-03-14T14:32:00;7.70;;;3.05;;
78324;SDS011;67584;51.400;6.692;2023-03-14T14:34:46;6.00;;;1.98;;
78324;SDS011;67584;51.400;6.692;2023-03-14T14:37:25;7.32;;;2.17;;
78324;SDS011;67584;51.400;6.692;2023-03-14T14:40:00;7.45;;;1.75;;
78324;SDS011;67584;51.400;6.692;2023-03-14T14:42:33;6.00;;;1.90;;
78324;SDS011;67584;51.400;6.692;2023-03-14T14:44:58;4.88;;;1.65;;
78324;SDS011;67584;51.400;6.692;2023-03-14T14:47:27;4.32;;;1.40;;
78324;SDS011;67584;51.400;6.692;2023-03-14T14:49:54;5.25;;;1.92;;
78324;SDS011;67584;51.400;6.692;2023-03-14T14:52:33;5.03;;;1.85;;
78324;SDS011;67584;51.400;6.692;2023-03-14T14:55:02;5.82;;;1.65;;
78324;SDS011;67584;51.400;6.692;2023-03-14T14:57:30;4.65;;;1.70;;
78324;SDS011;67584;51.400;6.692;2023-03-14T15:00:03;5.25;;;1.70;;
78324;SDS011;67584;51.400;6.692;2023-03-14T15:02:41;2.70;;;1.30;;
78324;SDS011;67584;51.400;6.692;2023-03-14T15:05:15;5.43;;;1.58;;
78324;SDS011;67584;51.400;6.692;2023-03-14T15:07:46;2.88;;;1.40;;
78324;SDS011;67584;51.400;6.692;2023-03-14T15:10:22;3.08;;;1.40;;
78324;SDS011;67584;51.400;6.692;2023-03-14T15:12:49;3.83;;;2.72;;
78324;SDS011;67584;51.400;6.692;2023-03-14T15:15:15;4.45;;;1.50;;
78324;SDS011;67584;51.400;6.692;2023-03-14T15:17:42;3.45;;;1.70;;
78324;SDS011;67584;51.400;6.692;2023-03-14T15:20:14;4.38;;;1.52;;
78324;SDS011;67584;51.400;6.692;2023-03-14T15:22:42;6.68;;;1.90;;
78324;SDS011;67584;51.400;6.692;2023-03-14T15:25:08;7.07;;;1.75;;
78324;SDS011;67584;51.400;6.692;2023-03-14T15:27:35;6.03;;;2.03;;
78324;SDS011;67584;51.400;6.692;2023-03-14T15:30:01;5.90;;;1.77;;
78324;SDS011;67584;51.400;6.692;2023-03-14T15:32:27;3.75;;;1.65;;
78324;SDS011;67584;51.400;6.692;2023-03-14T15:34:54;3.00;;;1.27;;
78324;SDS011;67584;51.400;6.692;2023-03-14T15:37:20;3.55;;;1.77;;
78324;SDS011;67584;51.400;6.692;2023-03-14T15:39:46;3.97;;;1.60;;
78324;SDS011;67584;51.400;6.692;2023-03-14T15:42:12;3.97;;;1.38;;
78324;SDS011;67584;51.400;6.692;2023-03-14T15:44:38;3.38;;;1.35;;
78324;SDS011;67584;51.400;6.692;2023-03-14T15:47:04;4.80;;;1.45;;
78324;SDS011;67584;51.400;6.692;2023-03-14T15:49:31;6.93;;;1.77;;
78324;SDS011;67584;51.400;6.692;2023-03-14T15:51:57;4.75;;;1.80;;
78324;SDS011;67584;51.400;6.692;2023-03-14T15:54:24;3.95;;;1.42;;
78324;SDS011;67584;51.400;6.692;2023-03-14T15:56:56;3.08;;;1.42;;
78324;SDS011;67584;51.400;6.692;2023-03-14T15:59:22;3.00;;;1.17;;
78324;SDS011;67584;51.400;6.692;2023-03-14T16:01:48;5.72;;;2.00;;
78324;SDS011;67584;51.400;6.692;2023-03-14T16:04:15;3.33;;;1.65;;
78324;SDS011;67584;51.400;6.692;2023-03-14T16:06:41;3.53;;;1.17;;
78324;SDS011;67584;51.400;6.692;2023-03-14T16:09:09;7.28;;;1.95;;
78324;SDS011;67584;51.400;6.692;2023-03-14T16:11:36;2.15;;;1.17;;
78324;SDS011;67584;51.400;6.692;2023-03-14T16:14:02;4.30;;;1.60;;
78324;SDS011;67584;51.400;6.692;2023-03-14T16:16:36;4.53;;;2.22;;
78324;SDS011;67584;51.400;6.692;2023-03-14T16:19:02;4.10;;;1.73;;
78324;SDS011;67584;51.400;6.692;2023-03-14T16:21:30;4.55;;;1.58;;
78324;SDS011;67584;51.400;6.692;2023-03-14T16:23:57;4.40;;;1.55;;
78324;SDS011;67584;51.400;6.692;2023-03-14T16:26:23;5.03;;;1.65;;